createdAt,value
2023-02-06T00:00:34.592Z,101218.89
2023-02-06T00:03:04.304Z,101218.36
2023-02-06T00:05:36.837Z,101215.38
2023-02-06T00:08:09.754Z,101216.61
2023-02-06T00:10:39.541Z,101213.41
2023-02-06T00:13:21.462Z,101209.14
2023-02-06T00:15:52.412Z,101208.25
2023-02-06T00:18:30.615Z,101207.16
2023-02-06T00:21:02.332Z,101210.34
2023-02-06T00:23:40.912Z,101210.50
2023-02-06T00:26:13.767Z,101211.60
2023-02-06T00:28:44.761Z,101212.52
2023-02-06T00:31:16.106Z,101216.78
2023-02-06T00:33:45.817Z,101217.66
2023-02-06T00:36:14.758Z,101214.83
2023-02-06T00:38:43.236Z,101216.02
2023-02-06T00:41:12.429Z,101213.54
2023-02-06T00:43:44.542Z,101210.54
2023-02-06T00:46:15.702Z,101210.73
2023-02-06T00:49:03.123Z,101213.75
2023-02-06T00:51:33.924Z,101215.32
2023-02-06T00:54:02.608Z,101209.13
2023-02-06T00:56:35.185Z,101204.02
2023-02-06T00:59:07.765Z,101202.27
2023-02-06T01:01:37.871Z,101205.52
2023-02-06T01:04:07.463Z,101211.91
2023-02-06T01:06:57.660Z,101215.49
2023-02-06T01:09:26.145Z,101212.34
2023-02-06T01:11:57.783Z,101209.84
2023-02-06T01:14:27.806Z,101209.67
2023-02-06T01:16:56.676Z,101214.45
2023-02-06T01:19:26.518Z,101211.77
2023-02-06T01:21:56.256Z,101215.27
2023-02-06T01:24:25.772Z,101214.39
2023-02-06T01:26:54.966Z,101212.66
2023-02-06T01:29:24.747Z,101211.42
2023-02-06T01:31:54.188Z,101211.09
2023-02-06T01:34:25.168Z,101210.19
2023-02-06T01:36:54.178Z,101209.98
2023-02-06T01:39:26.556Z,101213.67
2023-02-06T01:41:57.319Z,101208.56
2023-02-06T01:44:27.094Z,101209.11
2023-02-06T01:46:56.755Z,101208.55
2023-02-06T01:49:33.000Z,101210.88
2023-02-06T01:52:19.110Z,101215.66
2023-02-06T01:54:53.923Z,101212.13
2023-02-06T01:57:26.193Z,101214.97
2023-02-06T02:00:00.387Z,101216.94
2023-02-06T02:02:29.471Z,101217.82
2023-02-06T02:05:01.444Z,101220.82
2023-02-06T02:07:33.342Z,101225.94
2023-02-06T02:10:03.105Z,101226.63
2023-02-06T02:12:50.809Z,101227.19
2023-02-06T02:15:20.958Z,101238.00
2023-02-06T02:17:52.030Z,101242.45
2023-02-06T02:20:47.192Z,101241.09
2023-02-06T02:23:49.656Z,101243.63
2023-02-06T02:26:57.259Z,101247.21
2023-02-06T02:30:03.023Z,101246.20
2023-02-06T02:33:18.359Z,101250.84
2023-02-06T02:35:56.181Z,101250.52
2023-02-06T02:38:37.515Z,101246.48
2023-02-06T02:41:24.586Z,101246.69
2023-02-06T02:44:08.622Z,101248.68
2023-02-06T02:46:49.068Z,101252.45
2023-02-06T02:49:25.358Z,101254.75
2023-02-06T02:51:54.740Z,101255.47
2023-02-06T02:54:23.240Z,101259.36
2023-02-06T02:56:51.833Z,101253.89
2023-02-06T02:59:29.771Z,101252.65
2023-02-06T03:03:46.679Z,101251.75
2023-02-06T03:06:40.020Z,101256.35
2023-02-06T03:09:31.503Z,101258.10
2023-02-06T03:12:12.409Z,101258.09
2023-02-06T03:15:04.517Z,101259.84
2023-02-06T03:17:49.695Z,101260.01
2023-02-06T03:20:18.489Z,101258.39
2023-02-06T03:22:49.427Z,101261.89
2023-02-06T03:25:25.228Z,101262.06
2023-02-06T03:27:53.714Z,101263.12
2023-02-06T03:30:23.633Z,101264.54
2023-02-06T03:33:01.942Z,101266.13
2023-02-06T03:35:31.916Z,101268.77
2023-02-06T03:38:00.433Z,101270.52
2023-02-06T03:40:35.732Z,101274.56
2023-02-06T03:43:04.569Z,101275.63
2023-02-06T03:46:03.695Z,101274.55
2023-02-06T03:48:35.222Z,101274.71
2023-02-06T03:51:20.805Z,101280.85
2023-02-06T03:53:50.447Z,101279.98
2023-02-06T03:56:33.535Z,101280.53
2023-02-06T03:59:02.818Z,101280.00
2023-02-06T04:01:31.293Z,101280.88
2023-02-06T04:04:02.357Z,101282.45
2023-02-06T04:06:31.623Z,101276.44
2023-02-06T04:09:00.590Z,101282.23
2023-02-06T04:11:29.237Z,101283.82
2023-02-06T04:13:58.642Z,101283.11
2023-02-06T04:16:28.526Z,101285.94
2023-02-06T04:19:01.473Z,101285.60
2023-02-06T04:21:31.610Z,101293.02
2023-02-06T04:24:00.200Z,101297.44
2023-02-06T04:26:28.728Z,101295.84
2023-02-06T04:28:58.676Z,101296.88
2023-02-06T04:31:29.613Z,101301.84
2023-02-06T04:33:58.665Z,101302.18
2023-02-06T04:36:36.845Z,101309.26
2023-02-06T04:39:05.384Z,101312.09
2023-02-06T04:41:42.290Z,101311.20
2023-02-06T04:44:12.211Z,101308.36
2023-02-06T04:47:01.857Z,101308.17
2023-02-06T04:49:31.288Z,101307.45
2023-02-06T04:52:12.189Z,101307.27
2023-02-06T04:54:44.063Z,101307.98
2023-02-06T04:57:17.717Z,101308.87
2023-02-06T04:59:49.638Z,101312.94
2023-02-06T05:02:20.895Z,101316.30
2023-02-06T05:04:50.214Z,101315.79
2023-02-06T05:07:30.621Z,101318.24
2023-02-06T05:10:04.661Z,101312.59
2023-02-06T05:12:37.142Z,101312.05
2023-02-06T05:15:08.594Z,101312.23
2023-02-06T05:17:41.741Z,101311.00
2023-02-06T05:20:16.142Z,101309.93
2023-02-06T05:22:47.041Z,101314.37
2023-02-06T05:25:17.909Z,101316.66
2023-02-06T05:27:48.369Z,101320.21
2023-02-06T05:30:18.433Z,101322.16
2023-02-06T05:32:46.930Z,101322.85
2023-02-06T05:35:15.517Z,101323.02
2023-02-06T05:37:56.084Z,101324.96
2023-02-06T05:40:25.862Z,101325.67
2023-02-06T05:42:58.751Z,101328.17
2023-02-06T05:45:30.693Z,101328.55
2023-02-06T05:48:10.927Z,101326.43
2023-02-06T05:50:40.051Z,101323.96
2023-02-06T05:53:18.569Z,101326.08
2023-02-06T05:55:52.694Z,101329.23
2023-02-06T05:58:23.714Z,101332.95
2023-02-06T06:00:53.424Z,101335.95
2023-02-06T06:03:22.901Z,101335.23
2023-02-06T06:06:08.004Z,101336.11
2023-02-06T06:08:45.503Z,101338.05
2023-02-06T06:11:14.952Z,101341.55
2023-02-06T06:13:47.966Z,101332.89
2023-02-06T06:16:23.085Z,101329.20
2023-02-06T06:18:54.199Z,101325.83
2023-02-06T06:21:23.247Z,101324.91
2023-02-06T06:23:52.622Z,101326.84
2023-02-06T06:26:22.598Z,101327.89
2023-02-06T06:28:54.167Z,101325.39
2023-02-06T06:31:25.816Z,101323.96
2023-02-06T06:33:56.766Z,101328.52
2023-02-06T06:36:28.863Z,101329.41
2023-02-06T06:39:02.393Z,101334.53
2023-02-06T06:41:33.469Z,101333.45
2023-02-06T06:44:03.000Z,101332.55
2023-02-06T06:46:33.821Z,101333.94
2023-02-06T06:49:04.068Z,101338.30
2023-02-06T06:51:33.871Z,101338.62
2023-02-06T06:54:03.714Z,101335.23
2023-02-06T06:56:35.229Z,101337.47
2023-02-06T06:59:08.890Z,101338.98
2023-02-06T07:01:43.289Z,101345.48
2023-02-06T07:04:13.297Z,101345.98
2023-02-06T07:06:42.340Z,101353.38
2023-02-06T07:09:11.725Z,101355.12
2023-02-06T07:11:45.406Z,101351.77
2023-02-06T07:14:18.407Z,101350.16
2023-02-06T07:16:49.051Z,101354.95
2023-02-06T07:19:24.200Z,101359.86
2023-02-06T07:21:54.318Z,101356.95
2023-02-06T07:24:26.181Z,101359.92
2023-02-06T07:26:58.297Z,101364.66
2023-02-06T07:29:29.339Z,101366.41
2023-02-06T07:32:12.498Z,101369.58
2023-02-06T07:34:44.710Z,101371.13
2023-02-06T07:37:18.656Z,101370.90
2023-02-06T07:39:52.364Z,101369.10
2023-02-06T07:42:47.948Z,101371.64
2023-02-06T07:45:32.756Z,101370.88
2023-02-06T07:48:16.467Z,101369.73
2023-02-06T07:51:22.512Z,101374.38
2023-02-06T07:54:09.956Z,101370.35
2023-02-06T07:57:20.055Z,101374.19
2023-02-06T07:59:43.101Z,101369.30
2023-02-06T08:02:31.728Z,101368.85
2023-02-06T08:05:27.344Z,101371.75
2023-02-06T08:07:58.043Z,101367.95
2023-02-06T08:10:30.519Z,101371.09
2023-02-06T08:13:20.210Z,101372.50
2023-02-06T08:16:09.379Z,101372.17
2023-02-06T08:19:03.946Z,101376.45
2023-02-06T08:21:40.244Z,101386.54
2023-02-06T08:24:22.012Z,101388.34
2023-02-06T08:26:58.416Z,101386.56
2023-02-06T08:29:48.769Z,101384.58
2023-02-06T08:33:08.584Z,101389.99
2023-02-06T08:35:40.520Z,101389.84
2023-02-06T08:38:10.150Z,101389.22
2023-02-06T08:40:43.409Z,101389.70
2023-02-06T08:43:15.267Z,101393.20
2023-02-06T08:45:54.433Z,101396.35
2023-02-06T08:48:30.341Z,101394.93
2023-02-06T08:53:57.156Z,101395.17
2023-02-06T08:56:46.765Z,101395.77
2023-02-06T08:59:23.261Z,101393.80
2023-02-06T09:02:06.980Z,101390.02
2023-02-06T09:04:47.941Z,101390.80
2023-02-06T09:07:24.652Z,101394.38
2023-02-06T09:09:58.529Z,101391.96
2023-02-06T09:12:30.135Z,101391.75
2023-02-06T09:15:07.444Z,101393.05
2023-02-06T09:17:45.171Z,101390.61
2023-02-06T09:20:21.566Z,101382.89
2023-02-06T09:22:56.103Z,101385.21
2023-02-06T09:25:30.303Z,101381.87
2023-02-06T09:28:01.408Z,101385.39
2023-02-06T09:30:36.146Z,101380.81
2023-02-06T09:33:13.154Z,101381.39
2023-02-06T09:35:46.134Z,101385.45
2023-02-06T09:38:21.206Z,101385.11
2023-02-06T09:41:16.886Z,101383.89
2023-02-06T09:44:14.872Z,101381.27
2023-02-06T09:47:22.223Z,101375.45
2023-02-06T09:50:08.060Z,101375.27
2023-02-06T09:53:23.930Z,101370.32
2023-02-06T09:56:48.201Z,101366.13
2023-02-06T10:00:05.662Z,101363.79
2023-02-06T10:03:05.054Z,101358.40
2023-02-06T10:05:59.283Z,101351.83
2023-02-06T10:08:39.056Z,101352.35
2023-02-06T10:11:34.163Z,101345.79
2023-02-06T10:14:35.539Z,101340.98
2023-02-06T10:17:30.542Z,101337.91
2023-02-06T10:20:43.899Z,101334.48
2023-02-06T10:23:48.537Z,101323.70
2023-02-06T10:26:23.938Z,101318.61
2023-02-06T10:29:09.124Z,101320.73
2023-02-06T10:32:27.785Z,101323.54
2023-02-06T10:35:37.287Z,101325.98
2023-02-06T10:38:22.369Z,101326.11
2023-02-06T10:41:37.566Z,101327.33
2023-02-06T10:44:48.500Z,101321.74
2023-02-06T10:51:58.084Z,101330.71
2023-02-06T10:54:40.514Z,101338.14
2023-02-06T10:57:17.799Z,101337.78
2023-02-06T10:59:53.806Z,101340.41
2023-02-06T11:02:44.217Z,101337.38
2023-02-06T11:05:19.701Z,101339.92
2023-02-06T11:07:56.198Z,101343.02
2023-02-06T11:10:43.998Z,101344.18
2023-02-06T11:13:42.595Z,101347.83
2023-02-06T11:16:18.820Z,101349.45
2023-02-06T11:30:16.864Z,101351.84
2023-02-06T11:32:59.005Z,101360.36
2023-02-06T11:36:00.782Z,101361.73
2023-02-06T11:39:09.610Z,101358.70
2023-02-06T11:42:04.797Z,101360.75
2023-02-06T11:44:54.707Z,101358.58
2023-02-06T11:47:40.502Z,101358.67
2023-02-06T11:50:45.216Z,101359.64
2023-02-06T11:53:19.892Z,101362.73
2023-02-06T11:56:18.841Z,101363.31
2023-02-06T11:59:27.691Z,101360.94
2023-02-06T12:02:30.839Z,101358.15
2023-02-06T12:05:15.185Z,101355.84
2023-02-06T12:07:49.509Z,101352.70
2023-02-06T12:10:20.681Z,101354.34
2023-02-06T12:12:54.115Z,101355.05
2023-02-06T12:23:26.658Z,101344.13
2023-02-06T12:26:17.010Z,101347.15
2023-02-06T12:29:21.350Z,101349.16
2023-02-06T12:32:20.332Z,101348.90
2023-02-06T12:42:41.199Z,101350.23
2023-02-06T12:50:22.989Z,101348.32
2023-02-06T12:53:32.603Z,101347.10
2023-02-06T12:57:00.763Z,101345.34
2023-02-06T13:00:06.064Z,101337.26
2023-02-06T13:03:20.356Z,101334.25
2023-02-06T13:06:24.892Z,101333.75
2023-02-06T13:09:06.847Z,101330.37
2023-02-06T13:11:48.776Z,101323.39
2023-02-06T13:14:29.629Z,101318.16
2023-02-06T13:17:12.949Z,101324.86
2023-02-06T13:19:42.517Z,101326.70
2023-02-06T13:22:18.922Z,101322.46
2023-02-06T13:25:47.879Z,101322.61
2023-02-06T13:28:21.919Z,101321.98
2023-02-06T13:31:22.074Z,101321.35
2023-02-06T13:34:09.980Z,101329.79
2023-02-06T13:36:43.824Z,101329.17
2023-02-06T13:39:35.634Z,101333.52
2023-02-06T13:43:01.730Z,101336.11
2023-02-06T13:46:03.892Z,101339.76
2023-02-06T13:48:33.936Z,101338.63
2023-02-06T13:51:33.359Z,101336.38
2023-02-06T13:54:23.822Z,101340.87
2023-02-06T13:57:30.001Z,101336.77
2023-02-06T14:00:13.361Z,101339.42
2023-02-06T14:02:49.500Z,101346.44
2023-02-06T14:05:28.571Z,101348.18
2023-02-06T14:08:10.058Z,101346.54
2023-02-06T14:11:11.170Z,101349.34
2023-02-06T14:13:53.484Z,101347.14
2023-02-06T14:16:59.465Z,101357.30
2023-02-06T14:19:41.080Z,101356.11
2023-02-06T14:22:27.607Z,101357.73
2023-02-06T14:25:08.072Z,101358.70
2023-02-06T14:28:06.939Z,101359.67
2023-02-06T14:31:14.169Z,101358.46
2023-02-06T14:34:03.162Z,101355.49
2023-02-06T14:37:21.705Z,101363.20
2023-02-06T14:40:05.098Z,101370.33
2023-02-06T14:43:37.362Z,101373.86
2023-02-06T14:46:16.742Z,101378.50
2023-02-06T14:48:56.982Z,101382.79
2023-02-06T14:51:34.795Z,101384.60
2023-02-06T14:54:08.275Z,101390.80
2023-02-06T14:56:44.238Z,101397.02
2023-02-06T14:59:18.554Z,101400.75
2023-02-06T15:01:47.633Z,101399.88
2023-02-06T15:04:27.510Z,101400.08
2023-02-06T15:07:08.643Z,101399.04
2023-02-06T15:09:38.767Z,101400.83
2023-02-06T15:12:24.673Z,101406.85
2023-02-06T15:15:20.189Z,101410.74
2023-02-06T15:18:01.509Z,101414.50
2023-02-06T15:20:44.577Z,101413.27
2023-02-06T15:23:29.365Z,101419.98
2023-02-06T15:26:41.575Z,101427.08
2023-02-06T15:29:26.660Z,101432.41
2023-02-06T15:32:04.893Z,101435.08
2023-02-06T15:34:35.013Z,101437.36
2023-02-06T15:37:35.195Z,101440.90
2023-02-06T15:40:44.353Z,101441.23
2023-02-06T15:46:15.412Z,101444.98
2023-02-06T15:48:53.375Z,101445.20
2023-02-06T15:51:29.865Z,101445.74
2023-02-06T15:54:16.030Z,101445.40
2023-02-06T15:56:54.716Z,101446.63
2023-02-06T15:59:27.394Z,101452.27
2023-02-06T16:01:56.561Z,101453.52
2023-02-06T16:04:38.171Z,101452.96
2023-02-06T16:07:29.593Z,101451.93
2023-02-06T16:11:28.479Z,101454.77
2023-02-06T16:14:07.493Z,101458.14
2023-02-06T16:16:40.096Z,101455.86
2023-02-06T16:19:58.638Z,101454.98
2023-02-06T16:22:38.160Z,101446.16
2023-02-06T16:25:34.480Z,101447.05
2023-02-06T16:28:05.703Z,101442.28
2023-02-06T16:30:38.434Z,101436.97
2023-02-06T16:33:36.458Z,101433.27
2023-02-06T16:36:30.174Z,101429.39
2023-02-06T16:39:06.345Z,101433.62
2023-02-06T16:41:48.422Z,101424.96
2023-02-06T16:44:21.296Z,101423.74
2023-02-06T16:47:05.861Z,101424.44
2023-02-06T16:49:50.305Z,101423.73
2023-02-06T16:52:53.528Z,101422.86
2023-02-06T16:55:30.519Z,101425.67
2023-02-06T16:58:02.640Z,101424.98
2023-02-06T17:00:43.803Z,101419.68
2023-02-06T17:03:18.571Z,101421.81
2023-02-06T17:05:54.392Z,101421.66
2023-02-06T17:08:29.274Z,101423.63
2023-02-06T17:13:52.639Z,101429.11
2023-02-06T17:16:30.289Z,101429.99
2023-02-06T17:19:05.680Z,101429.11
2023-02-06T17:21:37.633Z,101427.88
2023-02-06T17:24:06.520Z,101434.75
2023-02-06T17:26:41.376Z,101434.04
2023-02-06T17:29:16.091Z,101435.10
2023-02-06T17:31:49.570Z,101438.45
2023-02-06T17:34:38.341Z,101438.27
2023-02-06T17:37:36.929Z,101437.21
2023-02-06T17:40:05.228Z,101437.56
2023-02-06T17:42:38.876Z,101436.34
2023-02-06T17:45:47.446Z,101428.23
2023-02-06T17:48:37.974Z,101423.98
2023-02-06T17:51:30.000Z,101420.11
2023-02-06T17:54:06.490Z,101419.78
2023-02-06T17:56:44.350Z,101419.81
2023-02-06T17:59:12.102Z,101416.11
2023-02-06T18:01:42.063Z,101415.58
2023-02-06T18:04:31.149Z,101421.05
2023-02-06T18:07:22.332Z,101428.27
2023-02-06T18:09:55.420Z,101428.28
2023-02-06T18:12:23.995Z,101433.39
2023-02-06T18:15:01.601Z,101436.93
2023-02-06T18:17:33.036Z,101438.88
2023-02-06T18:22:47.224Z,101437.66
2023-02-06T18:25:18.925Z,101435.71
2023-02-06T18:27:51.193Z,101436.61
2023-02-06T18:30:25.171Z,101432.73
2023-02-06T18:33:02.582Z,101434.15
2023-02-06T18:35:46.493Z,101437.34
2023-02-06T18:39:08.736Z,101440.17
2023-02-06T18:42:02.891Z,101441.75
2023-02-06T18:44:32.826Z,101446.16
2023-02-06T18:47:30.694Z,101451.63
2023-02-06T18:50:03.770Z,101449.36
2023-02-06T18:52:47.794Z,101449.55
2023-02-06T18:55:30.936Z,101451.65
2023-02-06T18:58:07.695Z,101449.73
2023-02-06T19:00:44.125Z,101450.09
2023-02-06T19:03:20.589Z,101452.19
2023-02-06T19:05:51.442Z,101455.20
2023-02-06T19:08:25.600Z,101453.79
2023-02-06T19:11:00.015Z,101453.08
2023-02-06T19:13:39.853Z,101451.14
2023-02-06T19:16:13.024Z,101449.37
2023-02-06T19:18:50.970Z,101454.67
2023-02-06T19:21:23.727Z,101450.95
2023-02-06T19:26:53.039Z,101446.56
2023-02-06T19:29:35.075Z,101446.02
2023-02-06T19:32:10.131Z,101444.09
2023-02-06T19:34:42.672Z,101443.55
2023-02-06T19:37:18.512Z,101446.02
2023-02-06T19:39:53.793Z,101444.79
2023-02-06T19:42:37.824Z,101450.42
2023-02-06T19:45:19.282Z,101444.26
2023-02-06T19:47:51.175Z,101443.39
2023-02-06T19:50:25.557Z,101441.61
2023-02-06T19:56:08.106Z,101433.87
2023-02-06T19:58:48.003Z,101426.64
2023-02-06T20:01:37.643Z,101433.67
2023-02-06T20:04:17.194Z,101431.02
2023-02-06T20:06:56.267Z,101430.33
2023-02-06T20:16:30.401Z,101429.41
2023-02-06T20:19:18.521Z,101427.65
2023-02-06T20:21:51.514Z,101424.66
2023-02-06T20:24:29.019Z,101419.38
2023-02-06T20:27:12.847Z,101417.08
2023-02-06T20:29:47.131Z,101413.57
2023-02-06T20:32:16.107Z,101417.61
2023-02-06T20:34:45.041Z,101420.78
2023-02-06T20:37:12.963Z,101415.86
2023-02-06T20:39:44.316Z,101414.98
2023-02-06T20:42:11.999Z,101416.39
2023-02-06T20:44:40.878Z,101412.16
2023-02-06T20:50:19.826Z,101415.52
2023-02-06T20:52:50.952Z,101415.70
2023-02-06T20:55:32.039Z,101415.17
2023-02-06T20:58:09.099Z,101415.86
2023-02-06T21:00:38.626Z,101416.39
2023-02-06T21:03:13.908Z,101414.29
2023-02-06T21:05:42.066Z,101420.27
2023-02-06T21:08:22.680Z,101419.56
2023-02-06T21:10:54.594Z,101418.15
2023-02-06T21:13:21.647Z,101414.11
2023-02-06T21:16:01.180Z,101415.35
2023-02-06T21:18:35.255Z,101417.63
2023-02-06T21:21:09.281Z,101418.17
2023-02-06T21:23:42.128Z,101415.36
2023-02-06T21:26:12.491Z,101418.88
2023-02-06T21:28:44.393Z,101414.48
2023-02-06T21:31:15.148Z,101415.02
2023-02-06T21:33:47.066Z,101416.95
2023-02-06T21:36:23.197Z,101419.05
2023-02-06T21:38:54.984Z,101418.70
2023-02-06T21:41:26.905Z,101418.70
2023-02-06T21:43:59.545Z,101415.01
2023-02-06T21:46:42.426Z,101412.02
2023-02-06T21:49:15.193Z,101409.91
2023-02-06T21:51:56.005Z,101402.34
2023-02-06T22:01:41.292Z,101393.52
2023-02-06T22:04:11.274Z,101389.64
2023-02-06T22:06:43.599Z,101384.53
2023-02-06T22:09:16.061Z,101382.27
2023-02-06T22:11:45.157Z,101379.44
2023-02-06T22:14:20.539Z,101379.45
2023-02-06T22:17:09.942Z,101378.56
2023-02-06T22:19:38.994Z,101380.15
2023-02-06T22:22:08.765Z,101375.92
2023-02-06T22:24:35.816Z,101372.40
2023-02-06T22:27:05.039Z,101378.73
2023-02-06T22:29:33.195Z,101373.45
2023-02-06T22:32:12.722Z,101370.82
2023-02-06T22:34:42.778Z,101371.16
2023-02-06T22:37:13.506Z,101365.71
2023-02-06T22:39:43.529Z,101368.36
2023-02-06T22:42:17.928Z,101365.89
2023-02-06T22:44:50.413Z,101367.11
2023-02-06T22:47:19.408Z,101371.33
2023-02-06T22:49:46.842Z,101368.34
2023-02-06T22:52:33.420Z,101367.98
2023-02-06T22:55:06.255Z,101368.51
2023-02-06T22:57:37.694Z,101365.34
2023-02-06T23:00:08.896Z,101361.48
2023-02-06T23:02:40.159Z,101359.72
2023-02-06T23:05:14.275Z,101356.55
2023-02-06T23:07:41.465Z,101358.50
2023-02-06T23:10:09.837Z,101358.50
2023-02-06T23:12:37.623Z,101356.90
2023-02-06T23:15:30.221Z,101353.55
2023-02-06T23:18:01.678Z,101357.77
2023-02-06T23:20:30.153Z,101352.67
2023-02-06T23:22:58.222Z,101351.09
2023-02-06T23:25:25.395Z,101353.38
2023-02-06T23:27:52.736Z,101355.49
2023-02-06T23:30:22.977Z,101348.80
2023-02-06T23:32:51.839Z,101349.32
2023-02-06T23:35:19.142Z,101353.55
2023-02-06T23:37:46.949Z,101352.48
2023-02-06T23:40:14.458Z,101350.56
2023-02-06T23:42:44.884Z,101348.45
2023-02-06T23:45:12.601Z,101349.14
2023-02-06T23:47:40.926Z,101351.61
2023-02-06T23:50:08.662Z,101354.25
2023-02-06T23:52:40.035Z,101352.14
2023-02-06T23:55:08.386Z,101352.51
2023-02-06T23:57:38.322Z,101347.92
